Gainesville, FL

1:17 AM EST on November 28, 2014 (GMT -0500)
Gainesville Regional | Change Station
CLOSE
Current Station
Airport
Location: Gainesville,
Elevation: 151 ft
Nearby Weather Stations
Active Advisory: Freeze Warning

Elev 151 ft 29.69 °N, 82.28 °W | Updated 24 minutes ago

Clear
Clear
42 °F
Feels Like 37 °F
N
8
Wind Variable Wind from NNW

Today
High -- | Low -- °F
--% Chance of Precip.
Yesterday
High -- | Low -- °F
Precip. -- in
7:04 AM 5:29 PM
Waxing Crescent, 37% visible
Pressure 30.34 in
Visibility 10.0 miles
Clouds Clear
Windchill 37 °F
Dew Point 33 °F
Humidity 70%
Rainfall 0.00 in
Snow Depth Not available.
UV 0 out of 12
Pollen 1.80 out of 12
Air Quality Not available.
Flu Activity Not available.
METAR KGNV 280553Z AUTO 34007KT 10SM CLR 06/01 A3033 RMK AO2 SLP272 T00560006 10094 20050 50004

More Conditions Fewer Conditions

Pressure 30.34 in
Visibility 10.0 miles
Clouds Clear
Windchill 37 °F
Dew Point 33 °F
Humidity 70%
Rainfall 0.00 in
Snow Depth Not available.
UV 0 out of 12
Pollen 1.80 out of 12
Air Quality Not available.
Flu Activity Not available.
METAR KGNV 280553Z AUTO 34007KT 10SM CLR 06/01 A3033 RMK AO2 SLP272 T00560006 10094 20050 50004

More Conditions Fewer Conditions

10-Day Weather Forecast

Almanac

Astronomy

Nov. 28, 2014 Rise Set
Actual Time
Civil Twilight
Nautical Twilight
Astronomical Twilight
Moon
Length of Visible Light
Length of Day
Tomorrow will be .
, % of the Moon is Illuminated

Today's Extremes

State Highs State Lows

Community

WunderPhotos

Upload Photos

1,774,197 photos uploaded!

WunderBlogs® & News

Nearby

Air Quality

  Air Quality AQ Index Pollutant
Not available.

Snow Depth

Station Depth Elevation

Earthquake Activity

City Distance Mag. Time & Date
Minimum magnitude displayed is 2.5.

Coastal Water Temperatures

Place Temperature

Nearby Weather Stations